sensor_id;sensor_type;location;lat;lon;timestamp;temperature;humidity
20722;DHT22;10522;52.198;9.890;2022-08-19T00:00:26;19.10;99.90
20722;DHT22;10522;52.198;9.890;2022-08-19T00:02:52;19.00;99.90
20722;DHT22;10522;52.198;9.890;2022-08-19T00:05:19;19.00;99.90
20722;DHT22;10522;52.198;9.890;2022-08-19T00:07:45;18.90;99.90
20722;DHT22;10522;52.198;9.890;2022-08-19T00:10:14;19.00;99.90
20722;DHT22;10522;52.198;9.890;2022-08-19T00:12:40;18.90;99.90
20722;DHT22;10522;52.198;9.890;2022-08-19T00:15:09;18.90;99.90
20722;DHT22;10522;52.198;9.890;2022-08-19T00:17:38;18.90;99.90
20722;DHT22;10522;52.198;9.890;2022-08-19T00:20:04;18.90;99.90
20722;DHT22;10522;52.198;9.890;2022-08-19T00:22:30;18.80;99.90
20722;DHT22;10522;52.198;9.890;2022-08-19T00:24:56;18.80;99.90
20722;DHT22;10522;52.198;9.890;2022-08-19T00:27:22;18.80;99.90
20722;DHT22;10522;52.198;9.890;2022-08-19T00:29:47;18.80;99.90
20722;DHT22;10522;52.198;9.890;2022-08-19T00:32:13;18.70;99.90
20722;DHT22;10522;52.198;9.890;2022-08-19T00:34:38;18.70;99.90
20722;DHT22;10522;52.198;9.890;2022-08-19T00:37:04;18.60;99.90
20722;DHT22;10522;52.198;9.890;2022-08-19T00:39:29;18.60;99.90
20722;DHT22;10522;52.198;9.890;2022-08-19T00:41:55;18.60;99.90
20722;DHT22;10522;52.198;9.890;2022-08-19T00:44:27;18.60;99.90
20722;DHT22;10522;52.198;9.890;2022-08-19T00:46:55;18.60;99.90
20722;DHT22;10522;52.198;9.890;2022-08-19T00:49:37;18.60;99.90
20722;DHT22;10522;52.198;9.890;2022-08-19T00:52:11;18.60;99.90
20722;DHT22;10522;52.198;9.890;2022-08-19T00:54:39;18.60;99.90
20722;DHT22;10522;52.198;9.890;2022-08-19T00:57:07;18.60;99.90
20722;DHT22;10522;52.198;9.890;2022-08-19T00:59:38;18.50;99.90
20722;DHT22;10522;52.198;9.890;2022-08-19T01:02:04;18.50;99.90
20722;DHT22;10522;52.198;9.890;2022-08-19T01:04:30;18.40;99.90
20722;DHT22;10522;52.198;9.890;2022-08-19T01:06:57;18.40;99.90
20722;DHT22;10522;52.198;9.890;2022-08-19T01:09:22;18.40;99.90
20722;DHT22;10522;52.198;9.890;2022-08-19T01:11:48;18.40;99.90
20722;DHT22;10522;52.198;9.890;2022-08-19T01:14:15;18.40;99.90
20722;DHT22;10522;52.198;9.890;2022-08-19T01:16:43;18.40;99.90
20722;DHT22;10522;52.198;9.890;2022-08-19T01:19:37;18.40;99.90
20722;DHT22;10522;52.198;9.890;2022-08-19T01:22:29;18.40;99.90
20722;DHT22;10522;52.198;9.890;2022-08-19T01:24:55;18.30;99.90
20722;DHT22;10522;52.198;9.890;2022-08-19T01:27:21;18.30;99.90
20722;DHT22;10522;52.198;9.890;2022-08-19T01:29:47;18.30;99.90
20722;DHT22;10522;52.198;9.890;2022-08-19T01:32:16;18.30;99.90
20722;DHT22;10522;52.198;9.890;2022-08-19T01:34:41;18.30;99.90
20722;DHT22;10522;52.198;9.890;2022-08-19T01:37:10;18.30;99.90
20722;DHT22;10522;52.198;9.890;2022-08-19T01:39:38;18.30;99.90
20722;DHT22;10522;52.198;9.890;2022-08-19T01:42:05;18.20;99.90
20722;DHT22;10522;52.198;9.890;2022-08-19T01:44:33;18.20;99.90
20722;DHT22;10522;52.198;9.890;2022-08-19T01:46:58;18.20;99.90
20722;DHT22;10522;52.198;9.890;2022-08-19T01:49:25;18.20;99.90
20722;DHT22;10522;52.198;9.890;2022-08-19T01:51:52;18.20;99.90
20722;DHT22;10522;52.198;9.890;2022-08-19T01:54:21;18.10;99.90
20722;DHT22;10522;52.198;9.890;2022-08-19T01:56:48;18.10;99.90
20722;DHT22;10522;52.198;9.890;2022-08-19T01:59:17;18.10;99.90
20722;DHT22;10522;52.198;9.890;2022-08-19T02:01:44;18.20;99.90
20722;DHT22;10522;52.198;9.890;2022-08-19T02:04:10;18.20;99.90
20722;DHT22;10522;52.198;9.890;2022-08-19T02:06:36;18.20;99.90
20722;DHT22;10522;52.198;9.890;2022-08-19T02:09:05;18.20;99.90
20722;DHT22;10522;52.198;9.890;2022-08-19T02:11:33;18.10;99.90
20722;DHT22;10522;52.198;9.890;2022-08-19T02:14:00;18.10;99.90
20722;DHT22;10522;52.198;9.890;2022-08-19T02:16:27;18.10;99.90
20722;DHT22;10522;52.198;9.890;2022-08-19T02:18:53;18.10;99.90
20722;DHT22;10522;52.198;9.890;2022-08-19T02:21:20;18.10;99.90
20722;DHT22;10522;52.198;9.890;2022-08-19T02:23:46;18.10;99.90
20722;DHT22;10522;52.198;9.890;2022-08-19T02:26:13;18.10;99.90
20722;DHT22;10522;52.198;9.890;2022-08-19T02:28:39;18.10;99.90
20722;DHT22;10522;52.198;9.890;2022-08-19T02:31:10;18.00;99.90
20722;DHT22;10522;52.198;9.890;2022-08-19T02:33:36;18.00;99.90
20722;DHT22;10522;52.198;9.890;2022-08-19T02:36:04;18.00;99.90
20722;DHT22;10522;52.198;9.890;2022-08-19T02:38:30;18.00;99.90
20722;DHT22;10522;52.198;9.890;2022-08-19T02:41:02;18.00;99.90
20722;DHT22;10522;52.198;9.890;2022-08-19T02:43:30;17.90;99.90
20722;DHT22;10522;52.198;9.890;2022-08-19T02:45:56;17.90;99.90
20722;DHT22;10522;52.198;9.890;2022-08-19T02:48:24;18.00;99.90
20722;DHT22;10522;52.198;9.890;2022-08-19T02:50:52;18.00;99.90
20722;DHT22;10522;52.198;9.890;2022-08-19T02:53:25;18.00;99.90
20722;DHT22;10522;52.198;9.890;2022-08-19T02:55:52;17.90;99.90
20722;DHT22;10522;52.198;9.890;2022-08-19T02:58:19;17.90;99.90
20722;DHT22;10522;52.198;9.890;2022-08-19T03:00:51;17.90;99.90
20722;DHT22;10522;52.198;9.890;2022-08-19T03:03:18;18.00;99.90
20722;DHT22;10522;52.198;9.890;2022-08-19T03:05:44;18.00;99.90
20722;DHT22;10522;52.198;9.890;2022-08-19T03:08:11;18.00;99.90
20722;DHT22;10522;52.198;9.890;2022-08-19T03:10:47;18.00;99.90
20722;DHT22;10522;52.198;9.890;2022-08-19T03:13:15;18.00;99.90
20722;DHT22;10522;52.198;9.890;2022-08-19T03:15:43;18.10;99.90
20722;DHT22;10522;52.198;9.890;2022-08-19T03:18:09;18.00;99.90
20722;DHT22;10522;52.198;9.890;2022-08-19T03:20:43;18.00;99.90
20722;DHT22;10522;52.198;9.890;2022-08-19T03:23:10;18.00;99.90
20722;DHT22;10522;52.198;9.890;2022-08-19T03:25:40;18.00;99.90
20722;DHT22;10522;52.198;9.890;2022-08-19T03:28:11;17.90;99.90
20722;DHT22;10522;52.198;9.890;2022-08-19T03:30:38;18.00;99.90
20722;DHT22;10522;52.198;9.890;2022-08-19T03:33:05;18.00;99.90
20722;DHT22;10522;52.198;9.890;2022-08-19T03:35:30;17.90;99.90
20722;DHT22;10522;52.198;9.890;2022-08-19T03:37:57;17.90;99.90
20722;DHT22;10522;52.198;9.890;2022-08-19T03:40:23;18.00;99.90
20722;DHT22;10522;52.198;9.890;2022-08-19T03:42:48;18.00;99.90
20722;DHT22;10522;52.198;9.890;2022-08-19T03:45:15;18.00;99.90
20722;DHT22;10522;52.198;9.890;2022-08-19T03:47:40;17.90;99.90
20722;DHT22;10522;52.198;9.890;2022-08-19T03:50:06;17.90;99.90
20722;DHT22;10522;52.198;9.890;2022-08-19T03:52:32;17.90;99.90
20722;DHT22;10522;52.198;9.890;2022-08-19T03:54:57;17.90;99.90
20722;DHT22;10522;52.198;9.890;2022-08-19T03:57:23;17.80;99.90
20722;DHT22;10522;52.198;9.890;2022-08-19T03:59:48;17.80;99.90
20722;DHT22;10522;52.198;9.890;2022-08-19T04:02:14;17.80;99.90
20722;DHT22;10522;52.198;9.890;2022-08-19T04:04:41;17.80;99.90
20722;DHT22;10522;52.198;9.890;2022-08-19T04:07:09;17.80;99.90
20722;DHT22;10522;52.198;9.890;2022-08-19T04:09:35;17.80;99.90
20722;DHT22;10522;52.198;9.890;2022-08-19T04:12:02;17.80;99.90
20722;DHT22;10522;52.198;9.890;2022-08-19T04:14:30;17.80;99.90
20722;DHT22;10522;52.198;9.890;2022-08-19T04:16:58;17.70;99.90
20722;DHT22;10522;52.198;9.890;2022-08-19T04:19:25;17.80;99.90
20722;DHT22;10522;52.198;9.890;2022-08-19T04:21:53;17.80;99.90
20722;DHT22;10522;52.198;9.890;2022-08-19T04:24:20;17.70;99.90
20722;DHT22;10522;52.198;9.890;2022-08-19T04:26:46;17.70;99.90
20722;DHT22;10522;52.198;9.890;2022-08-19T04:29:16;17.70;99.90
20722;DHT22;10522;52.198;9.890;2022-08-19T04:31:43;17.70;99.90
20722;DHT22;10522;52.198;9.890;2022-08-19T04:34:11;17.70;99.90
20722;DHT22;10522;52.198;9.890;2022-08-19T04:36:38;17.70;99.90
20722;DHT22;10522;52.198;9.890;2022-08-19T04:39:08;17.70;99.90
20722;DHT22;10522;52.198;9.890;2022-08-19T04:41:34;17.70;99.90
20722;DHT22;10522;52.198;9.890;2022-08-19T04:44:18;17.70;99.90
20722;DHT22;10522;52.198;9.890;2022-08-19T04:46:49;17.70;99.90
20722;DHT22;10522;52.198;9.890;2022-08-19T04:49:15;17.70;99.90
20722;DHT22;10522;52.198;9.890;2022-08-19T04:51:43;17.70;99.90
20722;DHT22;10522;52.198;9.890;2022-08-19T04:54:10;17.70;99.90
20722;DHT22;10522;52.198;9.890;2022-08-19T04:56:35;17.70;99.90
20722;DHT22;10522;52.198;9.890;2022-08-19T04:59:01;17.70;99.90
20722;DHT22;10522;52.198;9.890;2022-08-19T05:01:31;17.70;99.90
20722;DHT22;10522;52.198;9.890;2022-08-19T05:03:59;17.70;99.90
20722;DHT22;10522;52.198;9.890;2022-08-19T05:06:26;17.70;99.90
20722;DHT22;10522;52.198;9.890;2022-08-19T05:08:52;17.80;99.90
20722;DHT22;10522;52.198;9.890;2022-08-19T05:11:19;17.80;99.90
20722;DHT22;10522;52.198;9.890;2022-08-19T05:13:48;17.80;99.90
20722;DHT22;10522;52.198;9.890;2022-08-19T05:16:15;17.80;99.90
20722;DHT22;10522;52.198;9.890;2022-08-19T05:18:41;17.80;99.90
20722;DHT22;10522;52.198;9.890;2022-08-19T05:21:27;17.80;99.90
20722;DHT22;10522;52.198;9.890;2022-08-19T05:24:12;17.90;99.90
20722;DHT22;10522;52.198;9.890;2022-08-19T05:26:41;17.90;99.90
20722;DHT22;10522;52.198;9.890;2022-08-19T05:29:07;17.90;99.90
20722;DHT22;10522;52.198;9.890;2022-08-19T05:31:34;17.90;99.90
20722;DHT22;10522;52.198;9.890;2022-08-19T05:34:00;18.00;99.90
20722;DHT22;10522;52.198;9.890;2022-08-19T05:36:27;18.00;99.90
20722;DHT22;10522;52.198;9.890;2022-08-19T05:38:54;17.90;99.90
20722;DHT22;10522;52.198;9.890;2022-08-19T05:41:21;17.90;99.90
20722;DHT22;10522;52.198;9.890;2022-08-19T05:43:57;18.00;99.90
20722;DHT22;10522;52.198;9.890;2022-08-19T05:46:24;18.00;99.90
20722;DHT22;10522;52.198;9.890;2022-08-19T05:48:49;18.10;99.90
20722;DHT22;10522;52.198;9.890;2022-08-19T05:51:15;18.20;99.90
20722;DHT22;10522;52.198;9.890;2022-08-19T05:53:41;18.20;99.90
20722;DHT22;10522;52.198;9.890;2022-08-19T05:56:10;18.20;99.90
20722;DHT22;10522;52.198;9.890;2022-08-19T05:58:37;18.20;99.90
20722;DHT22;10522;52.198;9.890;2022-08-19T06:01:04;18.20;99.90
20722;DHT22;10522;52.198;9.890;2022-08-19T06:03:32;18.30;99.90
20722;DHT22;10522;52.198;9.890;2022-08-19T06:05:58;18.30;99.90
20722;DHT22;10522;52.198;9.890;2022-08-19T06:08:25;18.30;99.90
20722;DHT22;10522;52.198;9.890;2022-08-19T06:10:52;18.30;99.90
20722;DHT22;10522;52.198;9.890;2022-08-19T06:13:17;18.30;99.90
20722;DHT22;10522;52.198;9.890;2022-08-19T06:15:45;18.30;99.90
20722;DHT22;10522;52.198;9.890;2022-08-19T06:18:12;18.20;99.90
20722;DHT22;10522;52.198;9.890;2022-08-19T06:20:37;18.10;99.90
20722;DHT22;10522;52.198;9.890;2022-08-19T06:23:03;18.10;99.90
20722;DHT22;10522;52.198;9.890;2022-08-19T06:25:28;18.20;99.90
20722;DHT22;10522;52.198;9.890;2022-08-19T06:27:54;18.10;99.90
20722;DHT22;10522;52.198;9.890;2022-08-19T06:30:20;18.10;99.90
20722;DHT22;10522;52.198;9.890;2022-08-19T06:32:45;17.90;99.90
20722;DHT22;10522;52.198;9.890;2022-08-19T06:35:11;17.90;99.90
20722;DHT22;10522;52.198;9.890;2022-08-19T06:37:37;17.90;99.90
20722;DHT22;10522;52.198;9.890;2022-08-19T06:40:03;17.80;99.90
20722;DHT22;10522;52.198;9.890;2022-08-19T06:42:29;17.90;99.90
20722;DHT22;10522;52.198;9.890;2022-08-19T06:44:55;18.00;99.90
20722;DHT22;10522;52.198;9.890;2022-08-19T06:47:21;18.10;99.90
20722;DHT22;10522;52.198;9.890;2022-08-19T06:49:47;18.10;99.90
20722;DHT22;10522;52.198;9.890;2022-08-19T06:52:13;18.20;99.90
20722;DHT22;10522;52.198;9.890;2022-08-19T06:54:42;18.20;99.90
20722;DHT22;10522;52.198;9.890;2022-08-19T06:57:08;18.20;99.90
20722;DHT22;10522;52.198;9.890;2022-08-19T06:59:38;18.20;99.90
20722;DHT22;10522;52.198;9.890;2022-08-19T07:02:05;18.20;99.90
20722;DHT22;10522;52.198;9.890;2022-08-19T07:04:33;18.30;99.90
20722;DHT22;10522;52.198;9.890;2022-08-19T07:07:01;18.40;99.90
20722;DHT22;10522;52.198;9.890;2022-08-19T07:09:27;18.50;99.90
20722;DHT22;10522;52.198;9.890;2022-08-19T07:11:53;18.60;99.90
20722;DHT22;10522;52.198;9.890;2022-08-19T07:14:23;18.80;99.90
20722;DHT22;10522;52.198;9.890;2022-08-19T07:16:51;18.90;99.90
20722;DHT22;10522;52.198;9.890;2022-08-19T07:19:18;19.10;99.90
20722;DHT22;10522;52.198;9.890;2022-08-19T07:21:45;19.10;99.90
20722;DHT22;10522;52.198;9.890;2022-08-19T07:24:11;19.10;99.90
20722;DHT22;10522;52.198;9.890;2022-08-19T07:26:41;19.20;99.90
20722;DHT22;10522;52.198;9.890;2022-08-19T07:29:08;19.10;99.90
20722;DHT22;10522;52.198;9.890;2022-08-19T07:31:33;19.20;99.90
20722;DHT22;10522;52.198;9.890;2022-08-19T07:34:07;19.30;99.90
20722;DHT22;10522;52.198;9.890;2022-08-19T07:36:36;19.40;99.90
20722;DHT22;10522;52.198;9.890;2022-08-19T07:39:06;19.40;99.90
20722;DHT22;10522;52.198;9.890;2022-08-19T07:41:32;19.60;99.90
20722;DHT22;10522;52.198;9.890;2022-08-19T07:43:59;19.80;99.90
20722;DHT22;10522;52.198;9.890;2022-08-19T07:46:33;19.80;99.90
20722;DHT22;10522;52.198;9.890;2022-08-19T07:48:59;19.90;99.90
20722;DHT22;10522;52.198;9.890;2022-08-19T07:51:25;20.00;99.90
20722;DHT22;10522;52.198;9.890;2022-08-19T07:53:51;20.00;99.90
20722;DHT22;10522;52.198;9.890;2022-08-19T07:56:19;20.10;99.90
20722;DHT22;10522;52.198;9.890;2022-08-19T07:58:46;20.10;99.90
20722;DHT22;10522;52.198;9.890;2022-08-19T08:01:15;20.20;99.90
20722;DHT22;10522;52.198;9.890;2022-08-19T08:03:41;20.20;99.90
20722;DHT22;10522;52.198;9.890;2022-08-19T08:06:25;20.10;99.90
20722;DHT22;10522;52.198;9.890;2022-08-19T08:09:10;20.30;99.90
20722;DHT22;10522;52.198;9.890;2022-08-19T08:11:37;20.40;99.90
20722;DHT22;10522;52.198;9.890;2022-08-19T08:14:03;20.50;99.90
20722;DHT22;10522;52.198;9.890;2022-08-19T08:16:34;20.50;99.90
20722;DHT22;10522;52.198;9.890;2022-08-19T08:19:00;20.60;99.90
20722;DHT22;10522;52.198;9.890;2022-08-19T08:21:26;20.70;99.90
20722;DHT22;10522;52.198;9.890;2022-08-19T08:23:52;20.70;99.90
20722;DHT22;10522;52.198;9.890;2022-08-19T08:26:20;20.80;99.90
20722;DHT22;10522;52.198;9.890;2022-08-19T08:28:46;21.40;99.90
20722;DHT22;10522;52.198;9.890;2022-08-19T08:31:12;21.50;99.90
20722;DHT22;10522;52.198;9.890;2022-08-19T08:33:38;21.80;99.90
20722;DHT22;10522;52.198;9.890;2022-08-19T08:36:07;22.10;99.90
20722;DHT22;10522;52.198;9.890;2022-08-19T08:38:33;22.40;99.90
20722;DHT22;10522;52.198;9.890;2022-08-19T08:41:16;22.10;99.90
20722;DHT22;10522;52.198;9.890;2022-08-19T08:43:46;22.20;99.90
20722;DHT22;10522;52.198;9.890;2022-08-19T08:46:17;22.20;99.90
20722;DHT22;10522;52.198;9.890;2022-08-19T08:48:52;22.00;99.90
20722;DHT22;10522;52.198;9.890;2022-08-19T08:51:40;22.00;99.90
20722;DHT22;10522;52.198;9.890;2022-08-19T08:54:10;22.20;99.90
20722;DHT22;10522;52.198;9.890;2022-08-19T08:56:41;22.50;99.90
20722;DHT22;10522;52.198;9.890;2022-08-19T08:59:25;22.60;99.90
20722;DHT22;10522;52.198;9.890;2022-08-19T09:01:51;22.20;99.90
20722;DHT22;10522;52.198;9.890;2022-08-19T09:04:17;22.20;99.90
20722;DHT22;10522;52.198;9.890;2022-08-19T09:09:34;22.00;99.90
20722;DHT22;10522;52.198;9.890;2022-08-19T09:14:53;21.90;99.90
20722;DHT22;10522;52.198;9.890;2022-08-19T09:17:22;22.20;99.90
20722;DHT22;10522;52.198;9.890;2022-08-19T09:22:26;22.20;99.90
20722;DHT22;10522;52.198;9.890;2022-08-19T09:24:52;22.10;99.90
20722;DHT22;10522;52.198;9.890;2022-08-19T09:27:22;21.60;99.90
20722;DHT22;10522;52.198;9.890;2022-08-19T09:29:49;21.60;99.90
20722;DHT22;10522;52.198;9.890;2022-08-19T09:32:15;21.70;99.90
20722;DHT22;10522;52.198;9.890;2022-08-19T09:34:42;21.50;99.90
20722;DHT22;10522;52.198;9.890;2022-08-19T09:37:08;21.80;99.90
20722;DHT22;10522;52.198;9.890;2022-08-19T09:39:34;22.00;99.90
20722;DHT22;10522;52.198;9.890;2022-08-19T09:41:59;22.10;99.90
20722;DHT22;10522;52.198;9.890;2022-08-19T09:44:25;22.50;99.90
20722;DHT22;10522;52.198;9.890;2022-08-19T09:46:50;22.60;99.90
20722;DHT22;10522;52.198;9.890;2022-08-19T09:49:17;22.50;99.90
20722;DHT22;10522;52.198;9.890;2022-08-19T09:51:43;22.70;99.90
20722;DHT22;10522;52.198;9.890;2022-08-19T09:54:09;22.80;99.90
20722;DHT22;10522;52.198;9.890;2022-08-19T09:56:34;23.20;99.90
20722;DHT22;10522;52.198;9.890;2022-08-19T09:59:01;23.40;99.90
20722;DHT22;10522;52.198;9.890;2022-08-19T10:01:29;23.10;99.90
20722;DHT22;10522;52.198;9.890;2022-08-19T10:03:57;23.40;99.90
20722;DHT22;10522;52.198;9.890;2022-08-19T10:06:29;23.40;99.90
20722;DHT22;10522;52.198;9.890;2022-08-19T10:09:02;23.60;99.90
20722;DHT22;10522;52.198;9.890;2022-08-19T10:11:39;23.80;99.90
20722;DHT22;10522;52.198;9.890;2022-08-19T10:14:05;24.10;99.90
20722;DHT22;10522;52.198;9.890;2022-08-19T10:16:32;24.10;99.90
20722;DHT22;10522;52.198;9.890;2022-08-19T10:18:58;24.10;99.90
20722;DHT22;10522;52.198;9.890;2022-08-19T10:21:27;24.00;99.90
20722;DHT22;10522;52.198;9.890;2022-08-19T10:23:56;24.00;99.90
20722;DHT22;10522;52.198;9.890;2022-08-19T10:26:26;24.20;99.90
20722;DHT22;10522;52.198;9.890;2022-08-19T10:28:53;24.40;99.90
20722;DHT22;10522;52.198;9.890;2022-08-19T10:31:25;24.20;99.90
20722;DHT22;10522;52.198;9.890;2022-08-19T10:34:00;24.20;99.90
20722;DHT22;10522;52.198;9.890;2022-08-19T10:36:33;24.30;99.90
20722;DHT22;10522;52.198;9.890;2022-08-19T10:39:03;24.40;99.90
20722;DHT22;10522;52.198;9.890;2022-08-19T10:44:01;24.40;99.90
20722;DHT22;10522;52.198;9.890;2022-08-19T10:46:32;24.60;99.90
20722;DHT22;10522;52.198;9.890;2022-08-19T10:48:59;24.60;99.90
20722;DHT22;10522;52.198;9.890;2022-08-19T10:51:26;24.70;99.90
20722;DHT22;10522;52.198;9.890;2022-08-19T10:54:10;24.60;99.90
20722;DHT22;10522;52.198;9.890;2022-08-19T10:56:35;24.60;99.90
20722;DHT22;10522;52.198;9.890;2022-08-19T10:59:26;24.80;99.90
20722;DHT22;10522;52.198;9.890;2022-08-19T11:02:00;24.80;99.90
20722;DHT22;10522;52.198;9.890;2022-08-19T11:04:26;25.10;99.90
20722;DHT22;10522;52.198;9.890;2022-08-19T11:06:51;25.20;99.90
20722;DHT22;10522;52.198;9.890;2022-08-19T11:09:20;25.20;99.90
20722;DHT22;10522;52.198;9.890;2022-08-19T11:11:47;25.20;99.90
20722;DHT22;10522;52.198;9.890;2022-08-19T11:14:15;25.20;99.90
20722;DHT22;10522;52.198;9.890;2022-08-19T11:16:42;25.20;99.90
20722;DHT22;10522;52.198;9.890;2022-08-19T11:19:09;25.20;99.90
20722;DHT22;10522;52.198;9.890;2022-08-19T11:21:37;25.00;99.90
20722;DHT22;10522;52.198;9.890;2022-08-19T11:24:07;25.30;99.90
20722;DHT22;10522;52.198;9.890;2022-08-19T11:26:33;25.70;99.90
20722;DHT22;10522;52.198;9.890;2022-08-19T11:29:00;25.50;99.90
20722;DHT22;10522;52.198;9.890;2022-08-19T11:31:29;25.40;99.90
20722;DHT22;10522;52.198;9.890;2022-08-19T11:34:01;25.50;99.90
20722;DHT22;10522;52.198;9.890;2022-08-19T11:36:28;25.70;99.90
20722;DHT22;10522;52.198;9.890;2022-08-19T11:38:54;25.70;99.90
20722;DHT22;10522;52.198;9.890;2022-08-19T11:41:21;25.50;99.90
20722;DHT22;10522;52.198;9.890;2022-08-19T11:43:49;25.70;99.90
20722;DHT22;10522;52.198;9.890;2022-08-19T11:46:15;25.80;99.90
20722;DHT22;10522;52.198;9.890;2022-08-19T11:48:41;26.20;99.90
20722;DHT22;10522;52.198;9.890;2022-08-19T11:51:14;26.20;99.90
20722;DHT22;10522;52.198;9.890;2022-08-19T11:53:40;26.20;99.90
20722;DHT22;10522;52.198;9.890;2022-08-19T11:56:06;26.60;99.90
20722;DHT22;10522;52.198;9.890;2022-08-19T11:58:34;26.50;99.90
20722;DHT22;10522;52.198;9.890;2022-08-19T12:00:59;26.60;99.90
20722;DHT22;10522;52.198;9.890;2022-08-19T12:03:25;26.70;99.90
20722;DHT22;10522;52.198;9.890;2022-08-19T12:05:51;26.60;99.90
20722;DHT22;10522;52.198;9.890;2022-08-19T12:08:17;26.50;99.90
20722;DHT22;10522;52.198;9.890;2022-08-19T12:10:44;26.80;99.90
20722;DHT22;10522;52.198;9.890;2022-08-19T12:13:11;26.80;99.90
20722;DHT22;10522;52.198;9.890;2022-08-19T12:15:44;27.10;99.90
20722;DHT22;10522;52.198;9.890;2022-08-19T12:18:11;27.30;99.90
20722;DHT22;10522;52.198;9.890;2022-08-19T12:20:40;27.30;99.90
20722;DHT22;10522;52.198;9.890;2022-08-19T12:23:07;27.10;99.90
20722;DHT22;10522;52.198;9.890;2022-08-19T12:25:35;27.20;99.90
20722;DHT22;10522;52.198;9.890;2022-08-19T12:28:01;27.40;99.90
20722;DHT22;10522;52.198;9.890;2022-08-19T12:30:27;27.40;99.90
20722;DHT22;10522;52.198;9.890;2022-08-19T12:32:53;27.20;99.90
20722;DHT22;10522;52.198;9.890;2022-08-19T12:35:19;27.40;99.90
20722;DHT22;10522;52.198;9.890;2022-08-19T12:37:48;27.20;99.90
20722;DHT22;10522;52.198;9.890;2022-08-19T12:40:20;27.20;99.90
20722;DHT22;10522;52.198;9.890;2022-08-19T12:43:17;27.40;99.90
20722;DHT22;10522;52.198;9.890;2022-08-19T12:45:45;27.80;99.90
20722;DHT22;10522;52.198;9.890;2022-08-19T12:48:11;27.60;99.90
20722;DHT22;10522;52.198;9.890;2022-08-19T12:50:40;27.80;99.90
20722;DHT22;10522;52.198;9.890;2022-08-19T12:53:06;27.60;99.90
20722;DHT22;10522;52.198;9.890;2022-08-19T12:55:31;27.60;99.90
20722;DHT22;10522;52.198;9.890;2022-08-19T12:57:57;28.00;99.90
20722;DHT22;10522;52.198;9.890;2022-08-19T13:00:25;28.00;99.90
20722;DHT22;10522;52.198;9.890;2022-08-19T13:02:52;28.10;99.90
20722;DHT22;10522;52.198;9.890;2022-08-19T13:05:25;27.80;99.90
20722;DHT22;10522;52.198;9.890;2022-08-19T13:07:52;27.50;99.90
20722;DHT22;10522;52.198;9.890;2022-08-19T13:10:21;27.70;99.90
20722;DHT22;10522;52.198;9.890;2022-08-19T13:12:50;27.60;99.90
20722;DHT22;10522;52.198;9.890;2022-08-19T13:15:17;27.70;99.90
20722;DHT22;10522;52.198;9.890;2022-08-19T13:17:47;27.80;99.90
20722;DHT22;10522;52.198;9.890;2022-08-19T13:20:16;27.70;99.90
20722;DHT22;10522;52.198;9.890;2022-08-19T13:22:45;27.70;99.90
20722;DHT22;10522;52.198;9.890;2022-08-19T13:25:12;27.80;99.90
20722;DHT22;10522;52.198;9.890;2022-08-19T13:27:39;27.80;99.90
20722;DHT22;10522;52.198;9.890;2022-08-19T13:30:07;27.60;99.90
20722;DHT22;10522;52.198;9.890;2022-08-19T13:32:57;27.30;99.90
20722;DHT22;10522;52.198;9.890;2022-08-19T13:38:11;27.40;99.90
20722;DHT22;10522;52.198;9.890;2022-08-19T13:40:40;27.50;99.90
20722;DHT22;10522;52.198;9.890;2022-08-19T13:43:06;27.80;99.90
20722;DHT22;10522;52.198;9.890;2022-08-19T13:45:34;28.10;99.90
20722;DHT22;10522;52.198;9.890;2022-08-19T13:48:00;28.30;99.90
20722;DHT22;10522;52.198;9.890;2022-08-19T13:50:30;28.40;99.90
20722;DHT22;10522;52.198;9.890;2022-08-19T13:53:00;28.60;99.90
20722;DHT22;10522;52.198;9.890;2022-08-19T13:55:26;28.60;99.90
20722;DHT22;10522;52.198;9.890;2022-08-19T13:57:53;28.70;99.90
20722;DHT22;10522;52.198;9.890;2022-08-19T14:00:23;28.80;99.90
20722;DHT22;10522;52.198;9.890;2022-08-19T14:02:52;28.70;99.90
20722;DHT22;10522;52.198;9.890;2022-08-19T14:05:19;28.80;99.90
20722;DHT22;10522;52.198;9.890;2022-08-19T14:07:45;28.70;99.90
20722;DHT22;10522;52.198;9.890;2022-08-19T14:10:12;29.10;99.90
20722;DHT22;10522;52.198;9.890;2022-08-19T14:12:38;28.60;99.90
20722;DHT22;10522;52.198;9.890;2022-08-19T14:15:06;28.60;99.90
20722;DHT22;10522;52.198;9.890;2022-08-19T14:17:31;28.70;99.90
20722;DHT22;10522;52.198;9.890;2022-08-19T14:20:05;28.20;99.90
20722;DHT22;10522;52.198;9.890;2022-08-19T14:22:39;28.20;99.90
20722;DHT22;10522;52.198;9.890;2022-08-19T14:25:06;28.60;99.90
20722;DHT22;10522;52.198;9.890;2022-08-19T14:27:34;28.50;99.90
20722;DHT22;10522;52.198;9.890;2022-08-19T14:29:59;28.50;99.90
20722;DHT22;10522;52.198;9.890;2022-08-19T14:32:26;28.40;99.90
20722;DHT22;10522;52.198;9.890;2022-08-19T14:34:57;28.50;99.90
20722;DHT22;10522;52.198;9.890;2022-08-19T14:37:28;28.40;99.90
20722;DHT22;10522;52.198;9.890;2022-08-19T14:39:58;28.60;99.90
20722;DHT22;10522;52.198;9.890;2022-08-19T14:42:30;28.80;99.90
20722;DHT22;10522;52.198;9.890;2022-08-19T14:44:59;28.80;99.90
20722;DHT22;10522;52.198;9.890;2022-08-19T14:47:25;28.70;99.90
20722;DHT22;10522;52.198;9.890;2022-08-19T14:49:57;29.20;99.90
20722;DHT22;10522;52.198;9.890;2022-08-19T14:52:27;29.20;99.90
20722;DHT22;10522;52.198;9.890;2022-08-19T14:54:55;29.40;99.90
20722;DHT22;10522;52.198;9.890;2022-08-19T14:57:35;29.30;99.90
20722;DHT22;10522;52.198;9.890;2022-08-19T15:00:09;29.70;99.90
20722;DHT22;10522;52.198;9.890;2022-08-19T15:02:39;30.10;99.90
20722;DHT22;10522;52.198;9.890;2022-08-19T15:05:05;30.20;99.90
20722;DHT22;10522;52.198;9.890;2022-08-19T15:07:30;30.10;99.90
20722;DHT22;10522;52.198;9.890;2022-08-19T15:09:56;30.50;99.90
20722;DHT22;10522;52.198;9.890;2022-08-19T15:12:23;30.80;99.90
20722;DHT22;10522;52.198;9.890;2022-08-19T15:14:55;31.40;99.90
20722;DHT22;10522;52.198;9.890;2022-08-19T15:17:21;31.80;99.90
20722;DHT22;10522;52.198;9.890;2022-08-19T15:19:46;32.10;99.90
20722;DHT22;10522;52.198;9.890;2022-08-19T15:22:12;32.20;99.90
20722;DHT22;10522;52.198;9.890;2022-08-19T15:24:38;31.50;99.90
20722;DHT22;10522;52.198;9.890;2022-08-19T15:27:05;30.80;99.90
20722;DHT22;10522;52.198;9.890;2022-08-19T15:29:31;32.00;99.90
20722;DHT22;10522;52.198;9.890;2022-08-19T15:31:57;32.90;99.90
20722;DHT22;10522;52.198;9.890;2022-08-19T15:34:26;32.40;99.90
20722;DHT22;10522;52.198;9.890;2022-08-19T15:36:53;30.90;99.90
20722;DHT22;10522;52.198;9.890;2022-08-19T15:39:19;30.20;99.90
20722;DHT22;10522;52.198;9.890;2022-08-19T15:41:45;30.00;99.90
20722;DHT22;10522;52.198;9.890;2022-08-19T15:44:16;29.40;99.90
20722;DHT22;10522;52.198;9.890;2022-08-19T15:46:43;28.80;99.90
20722;DHT22;10522;52.198;9.890;2022-08-19T15:49:11;28.60;99.90